Time;durP1;ratioP1;P1;durP2;ratioP2;P2;SDS_P1;SDS_P2;PMS_P1;PMS_P2;Temp;Humidity;BMP_temperature;BMP_pressure;BME280_temperature;BME280_humidity;BME280_pressure;Samples;Min_cycle;Max_cycle;Signal;HPM_P1;HPM_P2
2021/08/21 00:00:25;;;;;;;20.13;17.98;;;;;;;;;;5106289;27;20035;-68
2021/08/21 00:02:51;;;;;;;21.02;18.80;;;;;;;;;;5107865;27;20032;-68
2021/08/21 00:05:18;;;;;;;22.65;18.35;;;;;;;;;;5108825;27;20051;-68
2021/08/21 00:07:45;;;;;;;31.65;23.67;;;;;;;;;;5116066;27;20039;-68
2021/08/21 00:10:12;;;;;;;28.63;22.88;;;;;;;;;;5109433;27;20130;-68
2021/08/21 00:12:39;;;;;;;26.90;21.75;;;;;;;;;;5117502;27;20035;-68
2021/08/21 00:15:07;;;;;;;30.98;23.23;;;;;;;;;;5107996;27;20055;-68
2021/08/21 00:17:35;;;;;;;25.33;22.10;;;;;;;;;;5104761;27;20086;-68
2021/08/21 00:20:02;;;;;;;28.55;22.52;;;;;;;;;;5109586;27;20530;-68
2021/08/21 00:22:28;;;;;;;25.42;22.38;;;;;;;;;;5117891;27;20051;-68
2021/08/21 00:24:54;;;;;;;26.60;21.30;;;;;;;;;;5110029;27;20125;-68
2021/08/21 00:27:20;;;;;;;28.98;22.83;;;;;;;;;;5112202;27;20039;-68
2021/08/21 00:29:47;;;;;;;26.42;22.17;;;;;;;;;;5120206;27;20074;-68
2021/08/21 00:32:13;;;;;;;31.90;23.10;;;;;;;;;;5107189;27;20659;-68
2021/08/21 00:34:39;;;;;;;27.98;22.40;;;;;;;;;;5114760;27;20047;-68
2021/08/21 00:37:06;;;;;;;28.08;21.95;;;;;;;;;;5109710;27;20053;-68
2021/08/21 00:39:32;;;;;;;25.95;22.48;;;;;;;;;;5117713;27;20059;-68
2021/08/21 00:41:58;;;;;;;28.98;23.80;;;;;;;;;;5105229;27;20043;-68
2021/08/21 00:44:25;;;;;;;26.33;21.50;;;;;;;;;;5110369;27;20044;-68
2021/08/21 00:46:55;;;;;;;24.80;22.05;;;;;;;;;;5105987;27;20028;-68
2021/08/21 00:49:21;;;;;;;26.58;22.35;;;;;;;;;;5117749;27;20202;-68
2021/08/21 00:51:47;;;;;;;29.00;23.75;;;;;;;;;;5100987;27;20559;-68
2021/08/21 00:54:13;;;;;;;24.77;20.65;;;;;;;;;;5115953;27;20043;-68
2021/08/21 00:56:40;;;;;;;27.92;22.77;;;;;;;;;;5110404;27;20044;-68
2021/08/21 00:59:07;;;;;;;28.27;23.08;;;;;;;;;;5118082;27;20031;-68
2021/08/21 01:01:33;;;;;;;30.92;23.25;;;;;;;;;;5106910;27;20063;-68
2021/08/21 01:03:59;;;;;;;29.83;23.95;;;;;;;;;;5116704;27;20043;-68
2021/08/21 01:06:25;;;;;;;30.17;23.25;;;;;;;;;;5116600;27;20036;-68
2021/08/21 01:08:51;;;;;;;29.80;23.58;;;;;;;;;;5101592;27;20433;-68
2021/08/21 01:11:17;;;;;;;34.67;24.27;;;;;;;;;;5113356;27;20040;-68
2021/08/21 01:13:43;;;;;;;30.45;23.63;;;;;;;;;;5111362;27;20472;-68
2021/08/21 01:16:10;;;;;;;34.55;24.08;;;;;;;;;;5119532;27;20545;-68
2021/08/21 01:18:38;;;;;;;31.00;23.40;;;;;;;;;;5110929;27;20043;-68
2021/08/21 01:21:04;;;;;;;33.65;24.52;;;;;;;;;;5092936;27;20043;-68
2021/08/21 01:23:30;;;;;;;35.03;26.33;;;;;;;;;;5102939;27;20032;-68
2021/08/21 01:25:56;;;;;;;31.13;24.58;;;;;;;;;;5113678;27;20163;-68
2021/08/21 01:28:23;;;;;;;35.65;28.15;;;;;;;;;;5100780;27;20459;-68
2021/08/21 01:30:50;;;;;;;37.67;27.95;;;;;;;;;;5117692;27;20039;-68
2021/08/21 01:33:16;;;;;;;38.72;29.27;;;;;;;;;;5112234;27;20041;-68
2021/08/21 01:35:42;;;;;;;39.88;28.98;;;;;;;;;;5103444;27;20056;-68
2021/08/21 01:38:08;;;;;;;34.83;26.65;;;;;;;;;;5111775;27;20071;-68
2021/08/21 01:40:35;;;;;;;38.78;28.90;;;;;;;;;;5116249;27;20115;-68
2021/08/21 01:43:03;;;;;;;32.95;26.70;;;;;;;;;;5110338;27;20553;-68
2021/08/21 01:45:29;;;;;;;34.85;28.00;;;;;;;;;;5112382;27;20134;-68
2021/08/21 01:47:55;;;;;;;34.92;27.85;;;;;;;;;;5115450;27;20088;-68
2021/08/21 01:50:21;;;;;;;34.67;28.23;;;;;;;;;;5103540;27;20040;-68
2021/08/21 01:52:48;;;;;;;37.65;26.42;;;;;;;;;;5109647;27;20055;-68
2021/08/21 01:55:15;;;;;;;34.10;26.48;;;;;;;;;;5108867;27;20070;-68
2021/08/21 01:57:42;;;;;;;29.63;24.33;;;;;;;;;;5113001;27;20387;-68
2021/08/21 02:00:09;;;;;;;27.15;24.17;;;;;;;;;;5107932;27;20077;-68
2021/08/21 02:02:36;;;;;;;30.48;24.10;;;;;;;;;;5096349;27;20059;-68
2021/08/21 02:05:02;;;;;;;27.38;24.20;;;;;;;;;;5106582;27;20426;-68
2021/08/21 02:07:28;;;;;;;27.50;24.33;;;;;;;;;;5110021;27;20468;-68
2021/08/21 02:09:55;;;;;;;30.88;24.33;;;;;;;;;;5110897;27;20044;-68
2021/08/21 02:12:21;;;;;;;26.17;22.65;;;;;;;;;;5113786;27;20066;-68
2021/08/21 02:14:47;;;;;;;29.30;25.42;;;;;;;;;;5101261;27;20043;-68
2021/08/21 02:17:13;;;;;;;28.83;24.48;;;;;;;;;;5114414;27;20134;-68
2021/08/21 02:19:39;;;;;;;32.05;26.02;;;;;;;;;;5104442;27;20066;-68
2021/08/21 02:22:06;;;;;;;31.90;24.02;;;;;;;;;;5113527;27;20036;-68
2021/08/21 02:24:33;;;;;;;32.38;24.00;;;;;;;;;;5108945;27;20083;-68
2021/08/21 02:27:01;;;;;;;44.58;26.13;;;;;;;;;;5107833;27;20475;-68
2021/08/21 02:29:27;;;;;;;31.58;24.85;;;;;;;;;;5113966;27;20506;-68
2021/08/21 02:31:58;;;;;;;26.02;22.95;;;;;;;;;;5107548;27;20043;-68
2021/08/21 02:34:25;;;;;;;28.00;23.05;;;;;;;;;;5113147;27;20586;-68
2021/08/21 02:36:51;;;;;;;38.17;27.88;;;;;;;;;;5101961;27;20063;-68
2021/08/21 02:39:17;;;;;;;39.08;28.30;;;;;;;;;;5108735;27;20063;-68
2021/08/21 02:41:44;;;;;;;29.63;25.13;;;;;;;;;;5107488;27;20049;-68
2021/08/21 02:44:10;;;;;;;29.33;24.00;;;;;;;;;;5109734;27;20146;-68
2021/08/21 02:46:37;;;;;;;49.78;30.25;;;;;;;;;;5099746;27;20031;-68
2021/08/21 02:49:03;;;;;;;43.83;28.60;;;;;;;;;;5113638;27;20104;-68
2021/08/21 02:51:29;;;;;;;40.08;29.20;;;;;;;;;;5108541;27;20111;-68
2021/08/21 02:53:55;;;;;;;46.08;30.00;;;;;;;;;;5110346;27;20092;-68
2021/08/21 02:56:21;;;;;;;37.83;28.20;;;;;;;;;;5103421;27;20040;-69
2021/08/21 02:58:48;;;;;;;34.10;27.05;;;;;;;;;;5111818;27;20434;-68
2021/08/21 03:01:14;;;;;;;44.10;29.42;;;;;;;;;;5111035;27;20049;-68
2021/08/21 03:03:40;;;;;;;46.53;30.20;;;;;;;;;;5107594;27;20079;-68
2021/08/21 03:06:06;;;;;;;74.35;34.67;;;;;;;;;;5110590;27;20036;-68
2021/08/21 03:08:32;;;;;;;36.53;26.45;;;;;;;;;;5104463;27;20048;-68
2021/08/21 03:10:58;;;;;;;34.92;29.75;;;;;;;;;;5114812;27;20038;-68
2021/08/21 03:13:25;;;;;;;30.27;25.63;;;;;;;;;;5100955;27;20040;-68
2021/08/21 03:15:51;;;;;;;35.47;29.05;;;;;;;;;;5111929;27;20051;-68
2021/08/21 03:18:17;;;;;;;45.35;30.70;;;;;;;;;;5109769;27;20038;-68
2021/08/21 03:20:43;;;;;;;33.95;28.20;;;;;;;;;;5111003;27;20046;-68
2021/08/21 03:23:09;;;;;;;43.00;30.20;;;;;;;;;;5104917;27;20040;-68
2021/08/21 03:25:35;;;;;;;64.47;33.67;;;;;;;;;;5114215;27;20044;-68
2021/08/21 03:28:02;;;;;;;49.00;31.27;;;;;;;;;;5102949;27;20393;-68
2021/08/21 03:30:28;;;;;;;51.50;32.05;;;;;;;;;;5110399;27;20130;-68
2021/08/21 03:32:55;;;;;;;48.28;31.80;;;;;;;;;;5108333;27;20130;-68
2021/08/21 03:35:21;;;;;;;50.53;32.63;;;;;;;;;;5112757;28;20032;-68
2021/08/21 03:37:47;;;;;;;38.10;29.88;;;;;;;;;;5102522;27;20553;-68
2021/08/21 03:40:13;;;;;;;63.53;34.38;;;;;;;;;;5111826;27;20491;-68
2021/08/21 03:42:40;;;;;;;73.13;35.53;;;;;;;;;;5108377;27;20043;-68
2021/08/21 03:45:07;;;;;;;180.13;47.42;;;;;;;;;;5112925;27;20035;-68
2021/08/21 03:47:33;;;;;;;103.63;42.38;;;;;;;;;;5109224;28;20039;-68
2021/08/21 03:49:59;;;;;;;166.18;48.15;;;;;;;;;;5104404;28;20392;-68
2021/08/21 03:52:25;;;;;;;215.40;50.15;;;;;;;;;;5112121;28;20575;-68
2021/08/21 03:54:51;;;;;;;203.75;53.90;;;;;;;;;;5098121;28;20040;-68
2021/08/21 03:57:17;;;;;;;90.35;44.85;;;;;;;;;;5105444;28;20039;-68
2021/08/21 03:59:43;;;;;;;138.82;48.55;;;;;;;;;;5103229;28;20071;-68
2021/08/21 04:02:10;;;;;;;304.27;67.75;;;;;;;;;;5098296;28;20063;-69
2021/08/21 04:04:36;;;;;;;177.80;56.03;;;;;;;;;;5097753;28;20037;-68
2021/08/21 04:07:02;;;;;;;345.75;68.97;;;;;;;;;;5112700;28;20035;-68
2021/08/21 04:09:28;;;;;;;254.50;61.65;;;;;;;;;;5109629;28;20035;-68
2021/08/21 04:11:54;;;;;;;286.92;66.45;;;;;;;;;;5092866;28;20078;-68
2021/08/21 04:14:20;;;;;;;179.55;52.53;;;;;;;;;;5100372;28;20036;-68
2021/08/21 04:16:46;;;;;;;226.45;60.35;;;;;;;;;;5116224;28;20047;-68
2021/08/21 04:19:13;;;;;;;244.75;56.83;;;;;;;;;;5100294;28;20024;-68
2021/08/21 04:21:40;;;;;;;182.48;49.28;;;;;;;;;;5112579;28;20035;-68
2021/08/21 04:24:06;;;;;;;434.00;77.13;;;;;;;;;;5105394;28;20176;-68
2021/08/21 04:26:33;;;;;;;289.50;62.55;;;;;;;;;;5107176;28;20114;-68
2021/08/21 04:28:59;;;;;;;283.52;59.33;;;;;;;;;;5106790;28;20039;-68
2021/08/21 04:31:26;;;;;;;164.60;49.28;;;;;;;;;;5098584;28;20461;-68
2021/08/21 04:33:52;;;;;;;194.20;53.67;;;;;;;;;;5109266;28;20050;-68
2021/08/21 04:36:18;;;;;;;147.00;52.10;;;;;;;;;;5106129;28;20205;-68
2021/08/21 04:38:45;;;;;;;396.10;76.05;;;;;;;;;;5107235;28;20039;-68
2021/08/21 04:41:16;;;;;;;87.03;45.58;;;;;;;;;;5109213;27;20039;-68
2021/08/21 04:43:43;;;;;;;280.38;56.17;;;;;;;;;;5099310;28;20035;-68
2021/08/21 04:46:09;;;;;;;115.97;43.65;;;;;;;;;;5105821;27;20487;-68
2021/08/21 04:48:35;;;;;;;581.58;87.43;;;;;;;;;;5109995;27;20058;-69
2021/08/21 04:51:01;;;;;;;293.40;66.05;;;;;;;;;;5094707;27;20048;-68
2021/08/21 04:53:27;;;;;;;443.80;78.10;;;;;;;;;;5119241;27;20050;-68
2021/08/21 04:55:53;;;;;;;206.65;53.25;;;;;;;;;;5105841;27;20520;-68
2021/08/21 04:58:19;;;;;;;206.50;57.55;;;;;;;;;;5114212;27;20476;-68
2021/08/21 05:00:45;;;;;;;203.90;52.42;;;;;;;;;;5108905;27;20039;-68
2021/08/21 05:03:12;;;;;;;366.98;62.72;;;;;;;;;;5095279;28;20059;-68
2021/08/21 05:05:38;;;;;;;115.30;50.60;;;;;;;;;;5108228;27;20522;-68
2021/08/21 05:08:04;;;;;;;125.63;52.20;;;;;;;;;;5108482;27;20052;-68
2021/08/21 05:10:30;;;;;;;142.32;47.50;;;;;;;;;;5107120;27;20479;-68
2021/08/21 05:12:56;;;;;;;376.83;69.80;;;;;;;;;;5109014;27;20103;-68
2021/08/21 05:15:23;;;;;;;325.02;64.32;;;;;;;;;;5110814;27;20039;-68
2021/08/21 05:17:51;;;;;;;359.25;58.95;;;;;;;;;;5105811;27;20051;-68
2021/08/21 05:20:25;;;;;;;161.18;48.58;;;;;;;;;;5117416;27;20475;-68
2021/08/21 05:25:30;;;;;;;365.08;51.28;;;;;;;;;;5109171;27;20399;-68
2021/08/21 05:27:56;;;;;;;516.95;78.25;;;;;;;;;;5114798;27;20110;-68
2021/08/21 05:30:27;;;;;;;115.22;40.75;;;;;;;;;;5114017;27;20114;-68
2021/08/21 05:32:54;;;;;;;260.35;52.30;;;;;;;;;;5103746;27;21205;-68
2021/08/21 05:35:20;;;;;;;474.35;68.55;;;;;;;;;;5105540;27;20031;-68
2021/08/21 05:37:47;;;;;;;229.80;49.50;;;;;;;;;;5076986;27;20224;-68
2021/08/21 05:40:13;;;;;;;188.98;52.78;;;;;;;;;;5109146;27;20063;-68
2021/08/21 05:42:39;;;;;;;85.10;37.83;;;;;;;;;;5106204;27;20061;-68
2021/08/21 05:45:05;;;;;;;98.22;44.95;;;;;;;;;;5110897;27;20067;-68
2021/08/21 05:47:31;;;;;;;208.77;51.42;;;;;;;;;;5105452;27;20031;-68
2021/08/21 05:50:01;;;;;;;89.78;37.25;;;;;;;;;;5112896;27;20031;-68
2021/08/21 05:52:30;;;;;;;156.13;40.03;;;;;;;;;;5115848;27;20031;-68
2021/08/21 05:54:56;;;;;;;205.95;41.35;;;;;;;;;;5103569;27;20052;-68
2021/08/21 05:57:22;;;;;;;221.48;54.70;;;;;;;;;;5111506;27;20486;-68
2021/08/21 05:59:48;;;;;;;307.20;45.00;;;;;;;;;;5104970;27;20034;-68
2021/08/21 06:02:14;;;;;;;291.92;51.92;;;;;;;;;;5110579;27;20039;-68
2021/08/21 06:04:40;;;;;;;315.90;51.63;;;;;;;;;;5104667;27;20052;-68
2021/08/21 06:07:07;;;;;;;125.68;40.22;;;;;;;;;;5106070;27;20050;-68
2021/08/21 06:09:33;;;;;;;336.42;59.60;;;;;;;;;;5109680;27;20134;-68
2021/08/21 06:11:59;;;;;;;81.07;37.28;;;;;;;;;;5115558;27;20040;-68
2021/08/21 06:14:25;;;;;;;79.35;36.95;;;;;;;;;;5091094;28;20054;-68
2021/08/21 06:16:51;;;;;;;161.70;44.80;;;;;;;;;;5108405;27;20035;-68
2021/08/21 06:19:17;;;;;;;128.35;38.47;;;;;;;;;;5102053;27;20040;-68
2021/08/21 06:21:44;;;;;;;111.57;40.47;;;;;;;;;;5115575;27;20039;-68
2021/08/21 06:24:10;;;;;;;131.38;43.67;;;;;;;;;;5108909;27;20436;-68
2021/08/21 06:26:37;;;;;;;125.68;41.03;;;;;;;;;;5089235;27;20094;-68
2021/08/21 06:29:03;;;;;;;108.28;41.28;;;;;;;;;;5110555;27;20453;-68
2021/08/21 06:31:29;;;;;;;79.25;39.00;;;;;;;;;;5113747;27;20518;-68
2021/08/21 06:33:55;;;;;;;63.50;34.55;;;;;;;;;;5112633;27;20111;-68
2021/08/21 06:36:22;;;;;;;59.83;35.90;;;;;;;;;;5101001;27;20049;-68
2021/08/21 06:38:48;;;;;;;51.85;33.88;;;;;;;;;;5113961;27;20036;-68
2021/08/21 06:41:14;;;;;;;57.28;35.13;;;;;;;;;;5105560;27;20424;-68
2021/08/21 06:43:40;;;;;;;141.52;34.67;;;;;;;;;;5114162;27;20461;-68
2021/08/21 06:46:07;;;;;;;40.65;30.55;;;;;;;;;;5109198;27;20399;-68
2021/08/21 06:48:35;;;;;;;93.90;34.47;;;;;;;;;;5109595;27;20071;-68
2021/08/21 06:51:01;;;;;;;70.55;35.60;;;;;;;;;;5097980;27;20040;-68
2021/08/21 06:53:29;;;;;;;109.32;35.03;;;;;;;;;;5109804;27;20028;-68
2021/08/21 06:55:55;;;;;;;76.85;34.35;;;;;;;;;;5087730;28;20410;-68
2021/08/21 06:58:22;;;;;;;90.68;38.67;;;;;;;;;;5095249;27;20040;-68
2021/08/21 07:00:49;;;;;;;126.28;38.63;;;;;;;;;;5106899;27;20081;-68
2021/08/21 07:03:15;;;;;;;58.42;35.72;;;;;;;;;;5120225;27;20491;-68
2021/08/21 07:05:42;;;;;;;83.53;37.47;;;;;;;;;;5106917;27;20040;-68
2021/08/21 07:08:08;;;;;;;107.28;37.80;;;;;;;;;;5113236;27;20039;-68
2021/08/21 07:10:34;;;;;;;87.18;38.50;;;;;;;;;;5106778;27;20059;-68
2021/08/21 07:13:00;;;;;;;118.55;39.95;;;;;;;;;;5107032;27;20571;-68
2021/08/21 07:15:26;;;;;;;62.35;37.67;;;;;;;;;;5108732;27;20043;-68
2021/08/21 07:17:52;;;;;;;101.05;39.95;;;;;;;;;;5101899;27;20059;-68
2021/08/21 07:20:19;;;;;;;86.85;38.30;;;;;;;;;;5114652;27;20526;-68
2021/08/21 07:22:46;;;;;;;51.08;38.47;;;;;;;;;;5102133;27;20055;-68
2021/08/21 07:25:12;;;;;;;77.70;39.08;;;;;;;;;;5111106;27;20106;-68
2021/08/21 07:27:40;;;;;;;59.72;39.13;;;;;;;;;;5107580;27;20055;-68
2021/08/21 07:30:07;;;;;;;49.70;38.25;;;;;;;;;;5094137;28;20035;-68
2021/08/21 07:32:34;;;;;;;51.72;39.92;;;;;;;;;;5100395;27;20407;-68
2021/08/21 07:35:00;;;;;;;46.15;37.47;;;;;;;;;;5109235;27;20051;-69
2021/08/21 07:37:28;;;;;;;45.58;36.85;;;;;;;;;;5110119;27;20067;-69
2021/08/21 07:39:54;;;;;;;46.55;38.67;;;;;;;;;;5107494;27;20070;-69
2021/08/21 07:42:20;;;;;;;47.05;37.10;;;;;;;;;;5102455;27;20501;-69
2021/08/21 07:44:46;;;;;;;47.38;39.17;;;;;;;;;;5110365;27;20043;-69
2021/08/21 07:47:12;;;;;;;48.03;39.28;;;;;;;;;;5103580;27;20118;-69
2021/08/21 07:49:39;;;;;;;44.22;37.60;;;;;;;;;;5086839;28;20093;-69
2021/08/21 07:52:06;;;;;;;45.58;39.80;;;;;;;;;;5106872;28;20621;-69
2021/08/21 07:54:32;;;;;;;48.58;41.28;;;;;;;;;;5091909;28;20035;-68
2021/08/21 07:56:58;;;;;;;47.90;39.65;;;;;;;;;;5103593;28;20119;-68
2021/08/21 07:59:24;;;;;;;46.97;40.08;;;;;;;;;;5093494;28;20086;-68
2021/08/21 08:01:50;;;;;;;49.47;41.80;;;;;;;;;;5106573;28;20108;-68
2021/08/21 08:04:16;;;;;;;42.55;37.30;;;;;;;;;;5097153;28;20043;-68
2021/08/21 08:06:42;;;;;;;45.53;39.05;;;;;;;;;;5107223;28;20127;-68
2021/08/21 08:09:09;;;;;;;41.88;36.95;;;;;;;;;;5102902;28;20121;-68
2021/08/21 08:11:35;;;;;;;40.13;35.80;;;;;;;;;;5113769;28;20406;-68
2021/08/21 08:14:01;;;;;;;37.38;33.53;;;;;;;;;;5098305;28;20480;-68
2021/08/21 08:16:27;;;;;;;40.33;34.60;;;;;;;;;;5085264;28;21267;-68
2021/08/21 08:18:53;;;;;;;40.08;35.78;;;;;;;;;;5084701;28;20101;-68
2021/08/21 08:21:21;;;;;;;41.08;36.55;;;;;;;;;;5087978;28;20035;-68
2021/08/21 08:23:48;;;;;;;38.92;34.83;;;;;;;;;;5092855;28;20114;-68
2021/08/21 08:26:14;;;;;;;38.75;34.85;;;;;;;;;;5095578;28;20132;-68
2021/08/21 08:28:40;;;;;;;39.05;34.97;;;;;;;;;;5083621;28;20032;-68
2021/08/21 08:31:07;;;;;;;37.53;33.67;;;;;;;;;;5093049;28;20052;-68
2021/08/21 08:33:34;;;;;;;34.58;31.25;;;;;;;;;;5092432;28;20195;-68
2021/08/21 08:36:01;;;;;;;36.65;32.05;;;;;;;;;;5092731;28;20055;-68
2021/08/21 08:38:27;;;;;;;37.40;33.63;;;;;;;;;;5086460;28;20405;-68
2021/08/21 08:40:54;;;;;;;36.78;33.03;;;;;;;;;;5092668;28;20039;-68
2021/08/21 08:43:22;;;;;;;33.63;30.33;;;;;;;;;;5094299;28;20109;-68
2021/08/21 08:45:49;;;;;;;31.23;28.10;;;;;;;;;;5089241;28;20042;-68
2021/08/21 08:48:16;;;;;;;30.52;27.48;;;;;;;;;;5092069;28;20032;-68
2021/08/21 08:50:45;;;;;;;27.40;24.52;;;;;;;;;;5088524;28;20049;-68
2021/08/21 08:53:11;;;;;;;33.35;29.88;;;;;;;;;;5088259;28;20081;-69
2021/08/21 08:55:39;;;;;;;38.08;34.08;;;;;;;;;;5078598;28;20416;-69
2021/08/21 08:58:05;;;;;;;32.97;29.85;;;;;;;;;;5094515;28;20032;-69
2021/08/21 09:00:32;;;;;;;34.42;31.13;;;;;;;;;;5083325;28;20074;-69
2021/08/21 09:02:59;;;;;;;37.25;33.60;;;;;;;;;;5097685;28;20117;-68
2021/08/21 09:05:35;;;;;;;36.17;32.70;;;;;;;;;;5081947;28;20036;-68
2021/08/21 09:08:03;;;;;;;36.60;33.08;;;;;;;;;;5088802;28;20484;-68
2021/08/21 09:10:30;;;;;;;32.25;29.05;;;;;;;;;;5087874;28;21097;-68
2021/08/21 09:13:15;;;;;;;25.63;23.17;;;;;;;;;;5089207;28;20070;-69
2021/08/21 09:15:43;;;;;;;23.30;21.10;;;;;;;;;;5081183;28;20060;-69
2021/08/21 09:18:13;;;;;;;24.08;21.88;;;;;;;;;;5074304;28;20040;-69
2021/08/21 09:20:49;;;;;;;23.38;21.27;;;;;;;;;;5062885;28;20501;-68
2021/08/21 09:23:22;;;;;;;23.90;21.70;;;;;;;;;;5071582;28;20040;-69
2021/08/21 09:25:49;;;;;;;22.98;20.90;;;;;;;;;;5058737;28;20040;-69
2021/08/21 09:28:26;;;;;;;22.08;19.98;;;;;;;;;;5069386;28;20044;-69
2021/08/21 09:31:06;;;;;;;25.08;22.77;;;;;;;;;;5069112;28;20566;-69
2021/08/21 09:33:34;;;;;;;26.73;24.23;;;;;;;;;;5068556;28;20493;-69
2021/08/21 09:36:00;;;;;;;29.25;26.52;;;;;;;;;;5068196;28;20089;-69
2021/08/21 09:38:34;;;;;;;27.42;24.83;;;;;;;;;;5066281;28;20186;-69
2021/08/21 09:41:05;;;;;;;25.90;23.63;;;;;;;;;;5071844;28;20040;-69
2021/08/21 09:43:32;;;;;;;27.80;25.25;;;;;;;;;;5058966;28;20048;-69
2021/08/21 09:46:12;;;;;;;25.45;23.25;;;;;;;;;;5064867;28;20074;-70
2021/08/21 09:49:02;;;;;;;21.52;19.60;;;;;;;;;;5064375;28;20044;-70
2021/08/21 09:51:49;;;;;;;19.48;17.65;;;;;;;;;;5063103;28;20044;-70
2021/08/21 09:54:17;;;;;;;19.35;17.63;;;;;;;;;;5073972;28;20044;-70
2021/08/21 09:56:44;;;;;;;18.90;17.30;;;;;;;;;;5067020;28;20037;-70
2021/08/21 09:59:10;;;;;;;21.27;19.50;;;;;;;;;;5067676;28;20040;-70
2021/08/21 10:01:36;;;;;;;19.63;17.88;;;;;;;;;;5074969;28;20098;-70
2021/08/21 10:04:03;;;;;;;19.50;17.80;;;;;;;;;;5066725;28;20181;-71
2021/08/21 10:06:32;;;;;;;19.98;18.17;;;;;;;;;;5070377;28;20044;-71
2021/08/21 10:09:03;;;;;;;20.75;18.95;;;;;;;;;;5070880;28;20368;-71
2021/08/21 10:11:30;;;;;;;19.35;17.63;;;;;;;;;;5064627;28;20368;-71
2021/08/21 10:13:57;;;;;;;19.45;17.75;;;;;;;;;;5060376;28;20135;-71
2021/08/21 10:16:24;;;;;;;17.33;15.82;;;;;;;;;;5084437;27;20062;-71
2021/08/21 10:18:50;;;;;;;14.30;12.98;;;;;;;;;;5103701;27;20032;-71
2021/08/21 10:21:17;;;;;;;15.55;14.30;;;;;;;;;;5107609;27;20540;-71
2021/08/21 10:23:44;;;;;;;14.88;13.57;;;;;;;;;;5102830;27;20054;-71
2021/08/21 10:26:30;;;;;;;15.25;13.85;;;;;;;;;;5112617;27;20040;-71
2021/08/21 10:28:58;;;;;;;15.43;14.02;;;;;;;;;;5103596;27;20038;-71
2021/08/21 10:31:32;;;;;;;14.65;13.40;;;;;;;;;;5106578;27;20364;-71
2021/08/21 10:33:59;;;;;;;14.65;13.45;;;;;;;;;;5107630;27;20039;-71
2021/08/21 10:36:46;;;;;;;17.17;15.68;;;;;;;;;;5117688;27;20039;-71
2021/08/21 10:39:16;;;;;;;14.88;13.68;;;;;;;;;;5102879;27;20389;-71
2021/08/21 10:41:43;;;;;;;13.95;12.73;;;;;;;;;;5107989;27;20036;-71
2021/08/21 10:44:09;;;;;;;13.20;12.10;;;;;;;;;;5104537;27;23258;-72
2021/08/21 10:46:35;;;;;;;12.60;11.50;;;;;;;;;;5110370;27;20124;-72
2021/08/21 10:49:05;;;;;;;12.02;11.02;;;;;;;;;;5103941;27;20032;-72
2021/08/21 10:51:33;;;;;;;13.98;12.77;;;;;;;;;;5107454;27;20042;-72
2021/08/21 10:53:59;;;;;;;15.93;14.52;;;;;;;;;;5116443;27;20474;-71
2021/08/21 10:56:35;;;;;;;13.35;12.25;;;;;;;;;;5105448;27;20038;-71
2021/08/21 10:59:02;;;;;;;16.75;15.25;;;;;;;;;;5109768;27;20054;-71
2021/08/21 11:01:28;;;;;;;14.63;13.43;;;;;;;;;;5104620;27;20452;-71
2021/08/21 11:03:55;;;;;;;13.20;11.85;;;;;;;;;;5115272;27;20411;-71
2021/08/21 11:06:31;;;;;;;10.18;9.23;;;;;;;;;;5099907;27;20032;-72
2021/08/21 11:09:01;;;;;;;10.25;9.35;;;;;;;;;;5109409;27;20035;-71
2021/08/21 11:11:37;;;;;;;11.02;10.02;;;;;;;;;;5106790;27;20604;-71
2021/08/21 11:14:09;;;;;;;8.60;7.78;;;;;;;;;;5114639;27;20043;-71
2021/08/21 11:16:46;;;;;;;3.15;2.78;;;;;;;;;;5102633;27;20051;-72
2021/08/21 11:19:13;;;;;;;2.65;1.88;;;;;;;;;;5110962;27;20035;-71
2021/08/21 11:21:40;;;;;;;2.30;1.40;;;;;;;;;;5110877;27;20034;-71
2021/08/21 11:24:38;;;;;;;1.88;1.50;;;;;;;;;;5112446;27;20047;-71
2021/08/21 11:27:37;;;;;;;3.67;3.38;;;;;;;;;;5064825;27;20411;-71
2021/08/21 11:30:06;;;;;;;4.13;3.45;;;;;;;;;;5053094;27;20151;-71
2021/08/21 11:32:33;;;;;;;4.70;3.75;;;;;;;;;;5078059;28;20451;-71
2021/08/21 11:34:59;;;;;;;5.07;4.57;;;;;;;;;;5095308;28;20314;-71
2021/08/21 11:37:28;;;;;;;5.28;4.78;;;;;;;;;;5102729;27;20076;-71
2021/08/21 11:39:55;;;;;;;7.07;6.35;;;;;;;;;;5109928;27;20066;-71
2021/08/21 11:42:22;;;;;;;6.50;5.90;;;;;;;;;;5108781;27;20061;-71
2021/08/21 11:44:55;;;;;;;7.75;7.07;;;;;;;;;;5115462;27;20118;-71
2021/08/21 11:47:30;;;;;;;8.63;7.93;;;;;;;;;;5103487;27;20530;-71
2021/08/21 11:49:57;;;;;;;8.63;7.13;;;;;;;;;;5111165;27;20027;-71
2021/08/21 11:52:23;;;;;;;7.30;6.70;;;;;;;;;;5105810;28;20046;-71
2021/08/21 11:54:50;;;;;;;8.68;7.65;;;;;;;;;;5112821;28;20046;-71
2021/08/21 11:57:16;;;;;;;10.25;9.25;;;;;;;;;;5106444;28;20146;-71
2021/08/21 11:59:42;;;;;;;9.43;8.63;;;;;;;;;;5112433;28;20463;-71
2021/08/21 12:02:10;;;;;;;9.00;8.18;;;;;;;;;;5089984;28;20123;-71
2021/08/21 12:04:36;;;;;;;9.13;8.32;;;;;;;;;;5116421;28;20051;-71
2021/08/21 12:07:03;;;;;;;9.30;8.50;;;;;;;;;;5106150;28;20104;-71
2021/08/21 12:09:29;;;;;;;8.52;7.82;;;;;;;;;;5107248;28;20032;-71
2021/08/21 12:11:56;;;;;;;7.95;7.25;;;;;;;;;;5114040;28;20601;-71
2021/08/21 12:14:24;;;;;;;6.80;6.22;;;;;;;;;;5109755;28;20079;-71
2021/08/21 12:16:50;;;;;;;8.70;7.90;;;;;;;;;;5108848;28;20052;-71
2021/08/21 12:19:18;;;;;;;6.35;5.75;;;;;;;;;;5104175;28;20036;-71
2021/08/21 12:21:44;;;;;;;6.63;6.03;;;;;;;;;;5116218;28;20039;-71
2021/08/21 12:24:11;;;;;;;5.45;5.00;;;;;;;;;;5105417;28;20060;-71
2021/08/21 12:26:37;;;;;;;6.13;5.53;;;;;;;;;;5106806;28;20055;-71
2021/08/21 12:29:04;;;;;;;7.45;6.80;;;;;;;;;;5109837;28;20119;-71
2021/08/21 12:31:40;;;;;;;6.85;6.25;;;;;;;;;;5115988;28;20404;-71
2021/08/21 12:34:09;;;;;;;7.07;6.45;;;;;;;;;;5103162;28;20042;-71
2021/08/21 12:36:43;;;;;;;7.72;7.03;;;;;;;;;;5111497;28;20423;-71
2021/08/21 12:39:10;;;;;;;4.50;3.53;;;;;;;;;;5102500;28;20039;-71
2021/08/21 12:41:47;;;;;;;4.10;2.67;;;;;;;;;;5117015;28;20039;-71
2021/08/21 12:44:15;;;;;;;3.47;3.17;;;;;;;;;;5105206;28;20046;-71
2021/08/21 12:46:51;;;;;;;4.80;3.10;;;;;;;;;;5109317;28;20043;-70
2021/08/21 12:49:17;;;;;;;4.65;2.70;;;;;;;;;;5109308;28;20480;-70
2021/08/21 12:51:43;;;;;;;4.05;3.60;;;;;;;;;;5112722;28;20089;-70
2021/08/21 12:54:11;;;;;;;4.85;4.45;;;;;;;;;;5104079;28;20444;-70
2021/08/21 12:56:38;;;;;;;6.32;4.20;;;;;;;;;;5112235;28;20044;-70
2021/08/21 12:59:11;;;;;;;4.45;4.03;;;;;;;;;;5110863;28;20126;-70
2021/08/21 13:01:38;;;;;;;4.88;3.63;;;;;;;;;;5117331;27;20092;-70
2021/08/21 13:04:08;;;;;;;4.70;3.15;;;;;;;;;;5115283;27;20568;-70
2021/08/21 13:06:34;;;;;;;4.63;3.25;;;;;;;;;;5107779;27;20051;-70
2021/08/21 13:09:00;;;;;;;2.83;2.30;;;;;;;;;;5112801;27;20426;-70
2021/08/21 13:11:26;;;;;;;5.22;3.08;;;;;;;;;;5106396;27;20040;-70
2021/08/21 13:13:52;;;;;;;5.07;3.65;;;;;;;;;;5114338;27;20428;-70
2021/08/21 13:16:19;;;;;;;6.28;4.20;;;;;;;;;;5117619;27;20118;-70
2021/08/21 13:18:45;;;;;;;4.55;3.65;;;;;;;;;;5120150;27;20043;-70
2021/08/21 13:21:11;;;;;;;5.80;3.97;;;;;;;;;;5106323;27;20032;-70
2021/08/21 13:23:37;;;;;;;5.60;5.10;;;;;;;;;;5112030;27;20289;-70
2021/08/21 13:26:04;;;;;;;6.78;5.80;;;;;;;;;;5111624;27;20159;-70
2021/08/21 13:28:30;;;;;;;6.72;5.32;;;;;;;;;;5114549;27;20039;-70
2021/08/21 13:30:57;;;;;;;7.45;5.10;;;;;;;;;;5107988;27;20043;-70
2021/08/21 13:33:23;;;;;;;5.80;5.30;;;;;;;;;;5120945;27;20042;-70
2021/08/21 13:35:49;;;;;;;5.40;4.88;;;;;;;;;;5110070;27;20112;-70
2021/08/21 13:38:15;;;;;;;7.32;4.70;;;;;;;;;;5086515;28;20065;-70
2021/08/21 13:40:41;;;;;;;5.78;4.70;;;;;;;;;;5080488;28;20047;-70
2021/08/21 13:43:08;;;;;;;4.82;4.28;;;;;;;;;;5090720;27;20352;-70
2021/08/21 13:45:35;;;;;;;5.45;4.70;;;;;;;;;;5108756;27;20054;-70
2021/08/21 13:48:04;;;;;;;3.47;3.03;;;;;;;;;;5100779;27;20035;-70
2021/08/21 13:50:31;;;;;;;5.05;3.40;;;;;;;;;;5109691;27;20101;-70
2021/08/21 13:52:57;;;;;;;5.07;3.72;;;;;;;;;;5099153;27;20110;-70
2021/08/21 13:55:23;;;;;;;7.68;5.72;;;;;;;;;;5110965;27;20035;-70
2021/08/21 13:57:51;;;;;;;4.85;3.80;;;;;;;;;;5104490;27;20066;-70
2021/08/21 14:00:18;;;;;;;5.78;5.07;;;;;;;;;;5109792;27;20047;-71
2021/08/21 14:02:44;;;;;;;6.93;5.63;;;;;;;;;;5112910;27;20039;-71
2021/08/21 14:05:11;;;;;;;7.43;5.93;;;;;;;;;;5111021;27;20031;-71
2021/08/21 14:07:38;;;;;;;6.40;4.88;;;;;;;;;;5100117;27;20050;-71
2021/08/21 14:10:05;;;;;;;5.97;5.38;;;;;;;;;;5097121;27;20035;-71
2021/08/21 14:12:31;;;;;;;8.25;7.15;;;;;;;;;;5111335;27;20039;-71
2021/08/21 14:14:59;;;;;;;8.95;8.05;;;;;;;;;;5113150;27;20494;-71
2021/08/21 14:17:25;;;;;;;7.63;6.88;;;;;;;;;;5101541;27;20059;-71
2021/08/21 14:19:51;;;;;;;7.47;5.57;;;;;;;;;;5118713;27;20059;-71
2021/08/21 14:22:17;;;;;;;7.97;5.47;;;;;;;;;;5080647;27;20051;-71
2021/08/21 14:24:43;;;;;;;5.90;5.03;;;;;;;;;;5109112;27;20046;-71